sensor_id;sensor_type;location;lat;lon;timestamp;temperature;humidity
35523;DHT22;61478;50.820;4.330;2022-11-15T00:00:47;11.80;99.90
35523;DHT22;61478;50.820;4.330;2022-11-15T00:03:17;11.80;99.90
35523;DHT22;61478;50.820;4.330;2022-11-15T00:05:44;11.80;99.90
35523;DHT22;61478;50.820;4.330;2022-11-15T00:08:10;11.90;99.90
35523;DHT22;61478;50.820;4.330;2022-11-15T00:10:36;11.90;99.90
35523;DHT22;61478;50.820;4.330;2022-11-15T00:13:06;11.90;99.90
35523;DHT22;61478;50.820;4.330;2022-11-15T00:15:38;11.80;99.90
35523;DHT22;61478;50.820;4.330;2022-11-15T00:18:05;11.80;99.90
35523;DHT22;61478;50.820;4.330;2022-11-15T00:20:33;11.80;99.90
35523;DHT22;61478;50.820;4.330;2022-11-15T00:22:59;11.90;99.90
35523;DHT22;61478;50.820;4.330;2022-11-15T00:25:25;11.90;99.90
35523;DHT22;61478;50.820;4.330;2022-11-15T00:27:55;11.90;99.90
35523;DHT22;61478;50.820;4.330;2022-11-15T00:30:22;11.90;99.90
35523;DHT22;61478;50.820;4.330;2022-11-15T00:32:48;11.90;99.90
35523;DHT22;61478;50.820;4.330;2022-11-15T00:35:13;11.90;99.90
35523;DHT22;61478;50.820;4.330;2022-11-15T00:37:39;11.90;99.90
35523;DHT22;61478;50.820;4.330;2022-11-15T00:40:07;11.90;99.90
35523;DHT22;61478;50.820;4.330;2022-11-15T00:42:33;11.90;99.90
35523;DHT22;61478;50.820;4.330;2022-11-15T00:44:59;11.90;99.90
35523;DHT22;61478;50.820;4.330;2022-11-15T00:47:25;11.90;99.90
35523;DHT22;61478;50.820;4.330;2022-11-15T00:49:51;11.90;99.90
35523;DHT22;61478;50.820;4.330;2022-11-15T00:52:17;11.90;99.90
35523;DHT22;61478;50.820;4.330;2022-11-15T00:54:42;11.90;99.90
35523;DHT22;61478;50.820;4.330;2022-11-15T00:57:08;11.90;99.90
35523;DHT22;61478;50.820;4.330;2022-11-15T00:59:34;11.90;99.90
35523;DHT22;61478;50.820;4.330;2022-11-15T01:02:00;12.00;99.90
35523;DHT22;61478;50.820;4.330;2022-11-15T01:04:26;12.00;99.90
35523;DHT22;61478;50.820;4.330;2022-11-15T01:06:52;12.00;99.90
35523;DHT22;61478;50.820;4.330;2022-11-15T01:09:18;12.00;99.90
35523;DHT22;61478;50.820;4.330;2022-11-15T01:11:44;12.00;99.90
35523;DHT22;61478;50.820;4.330;2022-11-15T01:14:10;12.00;99.90
35523;DHT22;61478;50.820;4.330;2022-11-15T01:16:36;12.00;99.90
35523;DHT22;61478;50.820;4.330;2022-11-15T01:19:01;12.00;99.90
35523;DHT22;61478;50.820;4.330;2022-11-15T01:21:27;12.00;99.90
35523;DHT22;61478;50.820;4.330;2022-11-15T01:23:56;11.90;99.90
35523;DHT22;61478;50.820;4.330;2022-11-15T01:26:23;12.00;99.90
35523;DHT22;61478;50.820;4.330;2022-11-15T01:28:50;11.90;99.90
35523;DHT22;61478;50.820;4.330;2022-11-15T01:31:18;11.90;99.90
35523;DHT22;61478;50.820;4.330;2022-11-15T01:33:45;11.90;99.90
35523;DHT22;61478;50.820;4.330;2022-11-15T01:36:14;11.90;99.90
35523;DHT22;61478;50.820;4.330;2022-11-15T01:38:40;12.00;99.90
35523;DHT22;61478;50.820;4.330;2022-11-15T01:41:06;11.90;99.90
35523;DHT22;61478;50.820;4.330;2022-11-15T01:43:34;12.00;99.90
35523;DHT22;61478;50.820;4.330;2022-11-15T01:46:29;12.00;99.90
35523;DHT22;61478;50.820;4.330;2022-11-15T01:48:56;12.00;99.90
35523;DHT22;61478;50.820;4.330;2022-11-15T01:51:26;11.90;99.90
35523;DHT22;61478;50.820;4.330;2022-11-15T01:54:03;12.00;99.90
35523;DHT22;61478;50.820;4.330;2022-11-15T01:56:33;11.90;99.90
35523;DHT22;61478;50.820;4.330;2022-11-15T01:59:03;12.00;99.90
35523;DHT22;61478;50.820;4.330;2022-11-15T02:01:32;12.00;99.90
35523;DHT22;61478;50.820;4.330;2022-11-15T02:04:07;12.00;99.90
35523;DHT22;61478;50.820;4.330;2022-11-15T02:06:36;12.00;99.90
35523;DHT22;61478;50.820;4.330;2022-11-15T02:09:03;12.00;99.90
35523;DHT22;61478;50.820;4.330;2022-11-15T02:11:29;12.00;99.90
35523;DHT22;61478;50.820;4.330;2022-11-15T02:13:56;12.00;99.90
35523;DHT22;61478;50.820;4.330;2022-11-15T02:24:53;12.10;99.90
35523;DHT22;61478;50.820;4.330;2022-11-15T02:30:22;12.20;99.90
35523;DHT22;61478;50.820;4.330;2022-11-15T02:35:42;12.30;99.90
35523;DHT22;61478;50.820;4.330;2022-11-15T02:38:32;12.30;99.90
35523;DHT22;61478;50.820;4.330;2022-11-15T02:43:38;12.20;99.90
35523;DHT22;61478;50.820;4.330;2022-11-15T02:46:45;12.30;99.90
35523;DHT22;61478;50.820;4.330;2022-11-15T02:49:33;12.30;99.90
35523;DHT22;61478;50.820;4.330;2022-11-15T02:51:59;12.20;99.90
35523;DHT22;61478;50.820;4.330;2022-11-15T02:54:29;12.20;99.90
35523;DHT22;61478;50.820;4.330;2022-11-15T02:57:04;12.20;99.90
35523;DHT22;61478;50.820;4.330;2022-11-15T03:00:00;12.20;99.90
35523;DHT22;61478;50.820;4.330;2022-11-15T03:09:03;12.10;99.90
35523;DHT22;61478;50.820;4.330;2022-11-15T03:11:35;12.10;99.90
35523;DHT22;61478;50.820;4.330;2022-11-15T03:16:42;12.00;99.90
35523;DHT22;61478;50.820;4.330;2022-11-15T03:19:53;12.00;99.90
35523;DHT22;61478;50.820;4.330;2022-11-15T03:22:01;12.10;99.90
35523;DHT22;61478;50.820;4.330;2022-11-15T03:24:30;12.00;99.90
35523;DHT22;61478;50.820;4.330;2022-11-15T03:26:59;11.90;99.90
35523;DHT22;61478;50.820;4.330;2022-11-15T03:29:31;11.90;99.90
35523;DHT22;61478;50.820;4.330;2022-11-15T03:32:12;11.90;99.90
35523;DHT22;61478;50.820;4.330;2022-11-15T03:40:25;11.90;99.90
35523;DHT22;61478;50.820;4.330;2022-11-15T03:43:02;11.80;99.90
35523;DHT22;61478;50.820;4.330;2022-11-15T03:45:36;11.80;99.90
35523;DHT22;61478;50.820;4.330;2022-11-15T03:48:16;11.80;99.90
35523;DHT22;61478;50.820;4.330;2022-11-15T03:50:45;11.80;99.90
35523;DHT22;61478;50.820;4.330;2022-11-15T03:53:13;11.80;99.90
35523;DHT22;61478;50.820;4.330;2022-11-15T03:55:39;11.70;99.90
35523;DHT22;61478;50.820;4.330;2022-11-15T03:58:05;11.70;99.90
35523;DHT22;61478;50.820;4.330;2022-11-15T04:00:31;11.80;99.90
35523;DHT22;61478;50.820;4.330;2022-11-15T04:02:57;11.80;99.90
35523;DHT22;61478;50.820;4.330;2022-11-15T04:05:23;11.70;99.90
35523;DHT22;61478;50.820;4.330;2022-11-15T04:07:49;11.80;99.90
35523;DHT22;61478;50.820;4.330;2022-11-15T04:10:15;11.80;99.90
35523;DHT22;61478;50.820;4.330;2022-11-15T04:12:43;11.80;99.90
35523;DHT22;61478;50.820;4.330;2022-11-15T04:15:11;11.70;99.90
35523;DHT22;61478;50.820;4.330;2022-11-15T04:20:15;11.70;99.90
35523;DHT22;61478;50.820;4.330;2022-11-15T04:23:01;11.60;99.90
35523;DHT22;61478;50.820;4.330;2022-11-15T04:25:49;11.70;99.90
35523;DHT22;61478;50.820;4.330;2022-11-15T04:28:15;11.60;99.90
35523;DHT22;61478;50.820;4.330;2022-11-15T04:30:41;11.70;99.90
35523;DHT22;61478;50.820;4.330;2022-11-15T04:33:07;11.70;99.90
35523;DHT22;61478;50.820;4.330;2022-11-15T04:35:34;11.70;99.90
35523;DHT22;61478;50.820;4.330;2022-11-15T04:38:00;11.70;99.90
35523;DHT22;61478;50.820;4.330;2022-11-15T04:40:26;11.70;99.90
35523;DHT22;61478;50.820;4.330;2022-11-15T04:42:52;11.70;99.90
35523;DHT22;61478;50.820;4.330;2022-11-15T04:45:18;11.70;99.90
35523;DHT22;61478;50.820;4.330;2022-11-15T04:47:45;11.70;99.90
35523;DHT22;61478;50.820;4.330;2022-11-15T04:50:12;11.60;99.90
35523;DHT22;61478;50.820;4.330;2022-11-15T04:52:51;11.50;99.90
35523;DHT22;61478;50.820;4.330;2022-11-15T04:55:17;11.50;99.90
35523;DHT22;61478;50.820;4.330;2022-11-15T04:57:43;11.50;99.90
35523;DHT22;61478;50.820;4.330;2022-11-15T05:00:11;11.50;99.90
35523;DHT22;61478;50.820;4.330;2022-11-15T05:02:38;11.50;99.90
35523;DHT22;61478;50.820;4.330;2022-11-15T05:05:24;11.50;99.90
35523;DHT22;61478;50.820;4.330;2022-11-15T05:07:50;11.40;99.90
35523;DHT22;61478;50.820;4.330;2022-11-15T05:10:17;11.40;99.90
35523;DHT22;61478;50.820;4.330;2022-11-15T05:12:42;11.40;99.90
35523;DHT22;61478;50.820;4.330;2022-11-15T05:15:09;11.40;99.90
35523;DHT22;61478;50.820;4.330;2022-11-15T05:17:35;11.40;99.90
35523;DHT22;61478;50.820;4.330;2022-11-15T05:20:00;11.30;99.90
35523;DHT22;61478;50.820;4.330;2022-11-15T05:22:27;11.40;99.90
35523;DHT22;61478;50.820;4.330;2022-11-15T05:24:53;11.40;99.90
35523;DHT22;61478;50.820;4.330;2022-11-15T05:27:18;11.40;99.90
35523;DHT22;61478;50.820;4.330;2022-11-15T05:29:44;11.20;99.90
35523;DHT22;61478;50.820;4.330;2022-11-15T05:32:11;11.10;99.90
35523;DHT22;61478;50.820;4.330;2022-11-15T05:34:38;11.10;99.90
35523;DHT22;61478;50.820;4.330;2022-11-15T05:37:04;11.00;99.90
35523;DHT22;61478;50.820;4.330;2022-11-15T05:39:30;11.00;99.90
35523;DHT22;61478;50.820;4.330;2022-11-15T05:42:00;11.00;99.90
35523;DHT22;61478;50.820;4.330;2022-11-15T05:44:27;11.00;99.90
35523;DHT22;61478;50.820;4.330;2022-11-15T05:46:54;11.00;99.90
35523;DHT22;61478;50.820;4.330;2022-11-15T05:49:26;10.90;99.90
35523;DHT22;61478;50.820;4.330;2022-11-15T05:51:55;10.80;99.90
35523;DHT22;61478;50.820;4.330;2022-11-15T05:54:22;10.80;99.90
35523;DHT22;61478;50.820;4.330;2022-11-15T05:56:49;10.80;99.90
35523;DHT22;61478;50.820;4.330;2022-11-15T05:59:15;10.80;99.90
35523;DHT22;61478;50.820;4.330;2022-11-15T06:01:41;10.80;99.90
35523;DHT22;61478;50.820;4.330;2022-11-15T06:04:07;10.80;99.90
35523;DHT22;61478;50.820;4.330;2022-11-15T06:06:33;10.80;99.90
35523;DHT22;61478;50.820;4.330;2022-11-15T06:08:59;10.80;99.90
35523;DHT22;61478;50.820;4.330;2022-11-15T06:11:25;10.80;99.90
35523;DHT22;61478;50.820;4.330;2022-11-15T06:13:51;10.80;99.90
35523;DHT22;61478;50.820;4.330;2022-11-15T06:16:17;10.80;99.90
35523;DHT22;61478;50.820;4.330;2022-11-15T06:18:42;10.80;99.90
35523;DHT22;61478;50.820;4.330;2022-11-15T06:21:08;10.80;99.90
35523;DHT22;61478;50.820;4.330;2022-11-15T06:23:35;10.80;99.90
35523;DHT22;61478;50.820;4.330;2022-11-15T06:26:02;10.90;99.90
35523;DHT22;61478;50.820;4.330;2022-11-15T06:28:29;10.90;99.90
35523;DHT22;61478;50.820;4.330;2022-11-15T06:30:56;10.80;99.90
35523;DHT22;61478;50.820;4.330;2022-11-15T06:33:22;10.80;99.90
35523;DHT22;61478;50.820;4.330;2022-11-15T06:35:48;10.70;99.90
35523;DHT22;61478;50.820;4.330;2022-11-15T06:38:14;10.70;99.90
35523;DHT22;61478;50.820;4.330;2022-11-15T06:40:40;10.60;99.90
35523;DHT22;61478;50.820;4.330;2022-11-15T06:43:06;10.70;99.90
35523;DHT22;61478;50.820;4.330;2022-11-15T06:45:32;10.70;99.90
35523;DHT22;61478;50.820;4.330;2022-11-15T06:47:58;10.60;99.90
35523;DHT22;61478;50.820;4.330;2022-11-15T06:50:24;10.60;99.90
35523;DHT22;61478;50.820;4.330;2022-11-15T06:52:50;10.70;99.90
35523;DHT22;61478;50.820;4.330;2022-11-15T06:55:16;10.70;99.90
35523;DHT22;61478;50.820;4.330;2022-11-15T06:57:50;10.70;99.90
35523;DHT22;61478;50.820;4.330;2022-11-15T07:00:18;10.70;99.90
35523;DHT22;61478;50.820;4.330;2022-11-15T07:02:45;10.70;99.90
35523;DHT22;61478;50.820;4.330;2022-11-15T07:05:11;10.80;99.90
35523;DHT22;61478;50.820;4.330;2022-11-15T07:07:37;10.80;99.90
35523;DHT22;61478;50.820;4.330;2022-11-15T07:10:04;10.80;99.90
35523;DHT22;61478;50.820;4.330;2022-11-15T07:12:30;10.80;99.90
35523;DHT22;61478;50.820;4.330;2022-11-15T07:14:56;11.00;99.90
35523;DHT22;61478;50.820;4.330;2022-11-15T07:17:22;11.20;99.90
35523;DHT22;61478;50.820;4.330;2022-11-15T07:19:47;11.30;99.90
35523;DHT22;61478;50.820;4.330;2022-11-15T07:22:13;11.20;99.90
35523;DHT22;61478;50.820;4.330;2022-11-15T07:24:39;11.30;99.90
35523;DHT22;61478;50.820;4.330;2022-11-15T07:27:05;11.20;99.90
35523;DHT22;61478;50.820;4.330;2022-11-15T07:29:30;11.10;99.90
35523;DHT22;61478;50.820;4.330;2022-11-15T07:31:56;10.90;99.90
35523;DHT22;61478;50.820;4.330;2022-11-15T07:34:23;10.80;99.90
35523;DHT22;61478;50.820;4.330;2022-11-15T07:36:49;10.70;99.90
35523;DHT22;61478;50.820;4.330;2022-11-15T07:39:15;10.70;99.90
35523;DHT22;61478;50.820;4.330;2022-11-15T07:41:40;10.70;99.90
35523;DHT22;61478;50.820;4.330;2022-11-15T07:44:06;10.50;99.90
35523;DHT22;61478;50.820;4.330;2022-11-15T07:46:32;10.40;99.90
35523;DHT22;61478;50.820;4.330;2022-11-15T07:48:58;10.40;99.90
35523;DHT22;61478;50.820;4.330;2022-11-15T07:51:24;10.40;99.90
35523;DHT22;61478;50.820;4.330;2022-11-15T07:53:50;10.40;99.90
35523;DHT22;61478;50.820;4.330;2022-11-15T07:56:15;10.30;99.90
35523;DHT22;61478;50.820;4.330;2022-11-15T07:58:41;10.30;99.90
35523;DHT22;61478;50.820;4.330;2022-11-15T08:01:09;10.30;99.90
35523;DHT22;61478;50.820;4.330;2022-11-15T08:03:36;10.30;99.90
35523;DHT22;61478;50.820;4.330;2022-11-15T08:06:02;10.40;99.90
35523;DHT22;61478;50.820;4.330;2022-11-15T08:08:28;10.40;99.90
35523;DHT22;61478;50.820;4.330;2022-11-15T08:10:54;10.40;99.90
35523;DHT22;61478;50.820;4.330;2022-11-15T08:13:20;10.40;99.90
35523;DHT22;61478;50.820;4.330;2022-11-15T08:15:46;10.40;99.90
35523;DHT22;61478;50.820;4.330;2022-11-15T08:18:14;10.40;99.90
35523;DHT22;61478;50.820;4.330;2022-11-15T08:20:41;10.50;99.90
35523;DHT22;61478;50.820;4.330;2022-11-15T08:23:09;10.60;99.90
35523;DHT22;61478;50.820;4.330;2022-11-15T08:25:35;10.50;99.90
35523;DHT22;61478;50.820;4.330;2022-11-15T08:28:03;10.50;99.90
35523;DHT22;61478;50.820;4.330;2022-11-15T08:30:30;10.40;99.90
35523;DHT22;61478;50.820;4.330;2022-11-15T08:32:58;10.40;99.90
35523;DHT22;61478;50.820;4.330;2022-11-15T08:35:24;10.30;99.90
35523;DHT22;61478;50.820;4.330;2022-11-15T08:37:52;10.30;99.90
35523;DHT22;61478;50.820;4.330;2022-11-15T08:40:18;10.40;99.90
35523;DHT22;61478;50.820;4.330;2022-11-15T08:42:48;10.40;99.90
35523;DHT22;61478;50.820;4.330;2022-11-15T08:45:14;10.40;99.90
35523;DHT22;61478;50.820;4.330;2022-11-15T08:47:40;10.40;99.90
35523;DHT22;61478;50.820;4.330;2022-11-15T08:50:06;10.40;99.90
35523;DHT22;61478;50.820;4.330;2022-11-15T08:52:32;10.50;99.90
35523;DHT22;61478;50.820;4.330;2022-11-15T08:54:58;10.50;99.90
35523;DHT22;61478;50.820;4.330;2022-11-15T08:57:24;10.50;99.90
35523;DHT22;61478;50.820;4.330;2022-11-15T08:59:50;10.50;99.90
35523;DHT22;61478;50.820;4.330;2022-11-15T09:02:16;10.50;99.90
35523;DHT22;61478;50.820;4.330;2022-11-15T09:04:43;10.50;99.90
35523;DHT22;61478;50.820;4.330;2022-11-15T09:07:10;10.60;99.90
35523;DHT22;61478;50.820;4.330;2022-11-15T09:09:37;10.80;99.90
35523;DHT22;61478;50.820;4.330;2022-11-15T09:12:04;10.70;99.90
35523;DHT22;61478;50.820;4.330;2022-11-15T09:14:30;10.70;99.90
35523;DHT22;61478;50.820;4.330;2022-11-15T09:16:56;10.80;99.90
35523;DHT22;61478;50.820;4.330;2022-11-15T09:19:22;10.90;99.90
35523;DHT22;61478;50.820;4.330;2022-11-15T09:21:48;10.90;99.90
35523;DHT22;61478;50.820;4.330;2022-11-15T09:24:14;10.80;99.90
35523;DHT22;61478;50.820;4.330;2022-11-15T09:26:40;10.80;99.90
35523;DHT22;61478;50.820;4.330;2022-11-15T09:29:06;10.90;99.90
35523;DHT22;61478;50.820;4.330;2022-11-15T09:31:32;11.00;99.90
35523;DHT22;61478;50.820;4.330;2022-11-15T09:33:58;11.00;99.90
35523;DHT22;61478;50.820;4.330;2022-11-15T09:36:24;10.90;99.90
35523;DHT22;61478;50.820;4.330;2022-11-15T09:38:50;11.10;99.90
35523;DHT22;61478;50.820;4.330;2022-11-15T09:41:26;11.10;99.90
35523;DHT22;61478;50.820;4.330;2022-11-15T09:47:44;11.20;99.90
35523;DHT22;61478;50.820;4.330;2022-11-15T09:49:44;11.20;99.90
35523;DHT22;61478;50.820;4.330;2022-11-15T09:52:10;11.30;99.90
35523;DHT22;61478;50.820;4.330;2022-11-15T09:54:38;11.30;99.90
35523;DHT22;61478;50.820;4.330;2022-11-15T09:57:16;11.40;99.90
35523;DHT22;61478;50.820;4.330;2022-11-15T10:00:08;11.40;99.90
35523;DHT22;61478;50.820;4.330;2022-11-15T10:02:44;11.40;99.90
35523;DHT22;61478;50.820;4.330;2022-11-15T10:05:16;11.40;99.90
35523;DHT22;61478;50.820;4.330;2022-11-15T10:10:49;11.50;99.90
35523;DHT22;61478;50.820;4.330;2022-11-15T10:13:28;11.50;99.90
35523;DHT22;61478;50.820;4.330;2022-11-15T10:19:14;11.60;99.90
35523;DHT22;61478;50.820;4.330;2022-11-15T10:21:50;11.60;99.90
35523;DHT22;61478;50.820;4.330;2022-11-15T10:24:23;11.70;99.90
35523;DHT22;61478;50.820;4.330;2022-11-15T10:26:50;11.80;99.90
35523;DHT22;61478;50.820;4.330;2022-11-15T10:29:21;11.90;99.90
35523;DHT22;61478;50.820;4.330;2022-11-15T10:31:47;12.00;99.90
35523;DHT22;61478;50.820;4.330;2022-11-15T10:34:16;12.00;99.90
35523;DHT22;61478;50.820;4.330;2022-11-15T10:36:45;12.10;99.90
35523;DHT22;61478;50.820;4.330;2022-11-15T10:39:13;12.00;99.90
35523;DHT22;61478;50.820;4.330;2022-11-15T10:41:41;12.00;99.90
35523;DHT22;61478;50.820;4.330;2022-11-15T10:46:43;12.20;99.90
35523;DHT22;61478;50.820;4.330;2022-11-15T10:49:22;12.30;99.90
35523;DHT22;61478;50.820;4.330;2022-11-15T10:51:55;12.30;99.90
35523;DHT22;61478;50.820;4.330;2022-11-15T10:54:36;12.30;99.90
35523;DHT22;61478;50.820;4.330;2022-11-15T10:59:40;12.40;99.90
35523;DHT22;61478;50.820;4.330;2022-11-15T11:04:52;12.60;99.90
35523;DHT22;61478;50.820;4.330;2022-11-15T11:07:24;12.60;99.90
35523;DHT22;61478;50.820;4.330;2022-11-15T11:10:01;12.50;99.90
35523;DHT22;61478;50.820;4.330;2022-11-15T11:12:32;12.60;99.90
35523;DHT22;61478;50.820;4.330;2022-11-15T11:15:08;12.60;99.90
35523;DHT22;61478;50.820;4.330;2022-11-15T11:20:42;12.70;99.90
35523;DHT22;61478;50.820;4.330;2022-11-15T11:28:52;12.80;99.90
35523;DHT22;61478;50.820;4.330;2022-11-15T11:47:43;13.10;99.90
35523;DHT22;61478;50.820;4.330;2022-11-15T11:55:19;13.00;99.90
35523;DHT22;61478;50.820;4.330;2022-11-15T12:03:55;13.00;99.90
35523;DHT22;61478;50.820;4.330;2022-11-15T12:14:27;12.90;99.90
35523;DHT22;61478;50.820;4.330;2022-11-15T12:16:55;13.00;99.90
35523;DHT22;61478;50.820;4.330;2022-11-15T12:19:21;13.00;99.90
35523;DHT22;61478;50.820;4.330;2022-11-15T12:21:55;13.00;99.90
35523;DHT22;61478;50.820;4.330;2022-11-15T12:24:37;12.90;99.90
35523;DHT22;61478;50.820;4.330;2022-11-15T12:27:22;13.00;99.90
35523;DHT22;61478;50.820;4.330;2022-11-15T12:30:02;13.00;99.90
35523;DHT22;61478;50.820;4.330;2022-11-15T12:32:37;13.00;99.90
35523;DHT22;61478;50.820;4.330;2022-11-15T12:35:20;13.10;99.90
35523;DHT22;61478;50.820;4.330;2022-11-15T12:37:49;13.10;99.90
35523;DHT22;61478;50.820;4.330;2022-11-15T12:40:34;13.10;99.90
35523;DHT22;61478;50.820;4.330;2022-11-15T12:45:42;13.30;99.90
35523;DHT22;61478;50.820;4.330;2022-11-15T12:58:52;13.30;99.90
35523;DHT22;61478;50.820;4.330;2022-11-15T13:17:52;13.60;99.90
35523;DHT22;61478;50.820;4.330;2022-11-15T13:22:48;13.60;99.90
35523;DHT22;61478;50.820;4.330;2022-11-15T13:27:56;13.50;99.90
35523;DHT22;61478;50.820;4.330;2022-11-15T13:30:29;13.50;99.90
35523;DHT22;61478;50.820;4.330;2022-11-15T13:32:57;13.40;99.90
35523;DHT22;61478;50.820;4.330;2022-11-15T13:35:26;13.40;99.90
35523;DHT22;61478;50.820;4.330;2022-11-15T13:37:54;13.50;99.90
35523;DHT22;61478;50.820;4.330;2022-11-15T13:40:26;13.60;99.90
35523;DHT22;61478;50.820;4.330;2022-11-15T13:42:58;13.50;99.90
35523;DHT22;61478;50.820;4.330;2022-11-15T13:45:24;13.50;99.90
35523;DHT22;61478;50.820;4.330;2022-11-15T13:47:55;13.50;99.90
35523;DHT22;61478;50.820;4.330;2022-11-15T13:50:26;13.50;99.90
35523;DHT22;61478;50.820;4.330;2022-11-15T13:52:53;13.50;99.90
35523;DHT22;61478;50.820;4.330;2022-11-15T13:55:23;13.50;99.90
35523;DHT22;61478;50.820;4.330;2022-11-15T13:57:51;13.50;99.90
35523;DHT22;61478;50.820;4.330;2022-11-15T14:00:44;13.60;99.90
35523;DHT22;61478;50.820;4.330;2022-11-15T14:03:26;13.60;99.90
35523;DHT22;61478;50.820;4.330;2022-11-15T14:08:34;13.60;99.90
35523;DHT22;61478;50.820;4.330;2022-11-15T14:11:19;13.50;99.90
35523;DHT22;61478;50.820;4.330;2022-11-15T14:16:35;13.60;99.90
35523;DHT22;61478;50.820;4.330;2022-11-15T14:19:02;13.50;99.90
35523;DHT22;61478;50.820;4.330;2022-11-15T14:21:28;13.60;99.90
35523;DHT22;61478;50.820;4.330;2022-11-15T14:24:14;13.40;99.90
35523;DHT22;61478;50.820;4.330;2022-11-15T14:26:40;13.40;99.90
35523;DHT22;61478;50.820;4.330;2022-11-15T14:29:26;13.40;99.90
35523;DHT22;61478;50.820;4.330;2022-11-15T14:31:53;13.40;99.90
35523;DHT22;61478;50.820;4.330;2022-11-15T14:34:19;13.50;99.90
35523;DHT22;61478;50.820;4.330;2022-11-15T14:36:47;13.40;99.90
35523;DHT22;61478;50.820;4.330;2022-11-15T14:39:13;13.40;99.90
35523;DHT22;61478;50.820;4.330;2022-11-15T14:41:39;13.40;99.90
35523;DHT22;61478;50.820;4.330;2022-11-15T14:44:06;13.40;99.90
35523;DHT22;61478;50.820;4.330;2022-11-15T14:46:32;13.50;99.90
35523;DHT22;61478;50.820;4.330;2022-11-15T14:48:58;13.50;99.90
35523;DHT22;61478;50.820;4.330;2022-11-15T14:51:24;13.50;99.90
35523;DHT22;61478;50.820;4.330;2022-11-15T14:53:50;13.50;99.90
35523;DHT22;61478;50.820;4.330;2022-11-15T14:56:16;13.60;99.90
35523;DHT22;61478;50.820;4.330;2022-11-15T14:58:45;13.50;99.90
35523;DHT22;61478;50.820;4.330;2022-11-15T15:01:23;13.30;99.90
35523;DHT22;61478;50.820;4.330;2022-11-15T15:03:53;13.40;99.90
35523;DHT22;61478;50.820;4.330;2022-11-15T15:06:22;13.30;99.90
35523;DHT22;61478;50.820;4.330;2022-11-15T15:08:48;13.20;99.90
35523;DHT22;61478;50.820;4.330;2022-11-15T15:11:24;13.20;99.90
35523;DHT22;61478;50.820;4.330;2022-11-15T15:13:52;13.20;99.90
35523;DHT22;61478;50.820;4.330;2022-11-15T15:16:21;13.20;99.90
35523;DHT22;61478;50.820;4.330;2022-11-15T15:18:54;13.00;99.90
35523;DHT22;61478;50.820;4.330;2022-11-15T15:21:27;13.20;99.90
35523;DHT22;61478;50.820;4.330;2022-11-15T15:23:56;13.10;99.90
35523;DHT22;61478;50.820;4.330;2022-11-15T15:26:25;13.10;99.90
35523;DHT22;61478;50.820;4.330;2022-11-15T15:28:51;13.20;99.90
35523;DHT22;61478;50.820;4.330;2022-11-15T15:31:21;13.30;99.90
35523;DHT22;61478;50.820;4.330;2022-11-15T15:33:49;13.50;99.90
35523;DHT22;61478;50.820;4.330;2022-11-15T15:36:18;13.30;99.90
35523;DHT22;61478;50.820;4.330;2022-11-15T15:38:47;13.40;99.90
35523;DHT22;61478;50.820;4.330;2022-11-15T15:41:16;13.20;99.90
35523;DHT22;61478;50.820;4.330;2022-11-15T15:43:43;13.20;99.90
35523;DHT22;61478;50.820;4.330;2022-11-15T15:46:14;13.10;99.90
35523;DHT22;61478;50.820;4.330;2022-11-15T15:48:41;13.00;99.90
35523;DHT22;61478;50.820;4.330;2022-11-15T15:51:10;12.90;99.90
35523;DHT22;61478;50.820;4.330;2022-11-15T15:53:38;12.90;99.90
35523;DHT22;61478;50.820;4.330;2022-11-15T15:56:07;13.00;99.90
35523;DHT22;61478;50.820;4.330;2022-11-15T15:58:34;13.10;99.90
35523;DHT22;61478;50.820;4.330;2022-11-15T16:01:04;12.90;99.90
35523;DHT22;61478;50.820;4.330;2022-11-15T16:03:35;12.90;99.90
35523;DHT22;61478;50.820;4.330;2022-11-15T16:09:01;13.00;99.90
35523;DHT22;61478;50.820;4.330;2022-11-15T16:11:30;13.00;99.90
35523;DHT22;61478;50.820;4.330;2022-11-15T16:13:56;12.90;99.90
35523;DHT22;61478;50.820;4.330;2022-11-15T16:16:22;12.90;99.90
35523;DHT22;61478;50.820;4.330;2022-11-15T16:18:48;13.00;99.90
35523;DHT22;61478;50.820;4.330;2022-11-15T16:21:14;13.00;99.90
35523;DHT22;61478;50.820;4.330;2022-11-15T16:23:40;13.10;99.90
35523;DHT22;61478;50.820;4.330;2022-11-15T16:26:21;13.10;99.90
35523;DHT22;61478;50.820;4.330;2022-11-15T16:28:48;13.10;99.90
35523;DHT22;61478;50.820;4.330;2022-11-15T16:31:14;13.10;99.90
35523;DHT22;61478;50.820;4.330;2022-11-15T16:33:45;13.10;99.90
35523;DHT22;61478;50.820;4.330;2022-11-15T16:36:25;12.90;99.90
35523;DHT22;61478;50.820;4.330;2022-11-15T16:38:56;13.10;99.90
35523;DHT22;61478;50.820;4.330;2022-11-15T16:41:22;13.10;99.90
35523;DHT22;61478;50.820;4.330;2022-11-15T16:43:48;13.00;99.90
35523;DHT22;61478;50.820;4.330;2022-11-15T16:46:20;13.00;99.90
35523;DHT22;61478;50.820;4.330;2022-11-15T16:48:47;13.00;99.90
35523;DHT22;61478;50.820;4.330;2022-11-15T16:51:13;13.00;99.90
35523;DHT22;61478;50.820;4.330;2022-11-15T16:53:39;13.10;99.90
35523;DHT22;61478;50.820;4.330;2022-11-15T16:58:47;13.30;99.90
35523;DHT22;61478;50.820;4.330;2022-11-15T17:01:18;13.20;99.90
35523;DHT22;61478;50.820;4.330;2022-11-15T17:03:44;13.20;99.90
35523;DHT22;61478;50.820;4.330;2022-11-15T17:06:14;13.10;99.90
35523;DHT22;61478;50.820;4.330;2022-11-15T17:08:44;13.00;99.90
35523;DHT22;61478;50.820;4.330;2022-11-15T17:11:14;13.00;99.90
35523;DHT22;61478;50.820;4.330;2022-11-15T17:13:41;13.00;99.90
35523;DHT22;61478;50.820;4.330;2022-11-15T17:16:12;13.10;99.90
35523;DHT22;61478;50.820;4.330;2022-11-15T17:18:39;13.00;99.90
35523;DHT22;61478;50.820;4.330;2022-11-15T17:21:06;13.10;99.90
35523;DHT22;61478;50.820;4.330;2022-11-15T17:23:33;13.00;99.90
35523;DHT22;61478;50.820;4.330;2022-11-15T17:26:03;13.10;99.90
35523;DHT22;61478;50.820;4.330;2022-11-15T17:28:31;13.00;99.90
35523;DHT22;61478;50.820;4.330;2022-11-15T17:31:11;13.00;99.90
35523;DHT22;61478;50.820;4.330;2022-11-15T17:33:41;12.90;99.90
35523;DHT22;61478;50.820;4.330;2022-11-15T17:36:10;12.90;99.90
35523;DHT22;61478;50.820;4.330;2022-11-15T17:38:39;12.90;99.90
35523;DHT22;61478;50.820;4.330;2022-11-15T17:41:13;13.00;99.90
35523;DHT22;61478;50.820;4.330;2022-11-15T17:43:39;13.00;99.90
35523;DHT22;61478;50.820;4.330;2022-11-15T17:46:07;13.00;99.90
35523;DHT22;61478;50.820;4.330;2022-11-15T17:48:33;13.20;99.90
35523;DHT22;61478;50.820;4.330;2022-11-15T17:51:01;13.10;99.90
35523;DHT22;61478;50.820;4.330;2022-11-15T17:53:35;13.00;99.90
35523;DHT22;61478;50.820;4.330;2022-11-15T17:56:08;12.80;99.90
35523;DHT22;61478;50.820;4.330;2022-11-15T17:58:34;12.80;99.90
35523;DHT22;61478;50.820;4.330;2022-11-15T18:03:33;13.00;99.90
35523;DHT22;61478;50.820;4.330;2022-11-15T18:05:59;13.10;99.90